Time;durP1;ratioP1;P1;durP2;ratioP2;P2;SDS_P1;SDS_P2;PMS_P1;PMS_P2;Temp;Humidity;BMP_temperature;BMP_pressure;BME280_temperature;BME280_humidity;BME280_pressure;Samples;Min_cycle;Max_cycle;Signal;HPM_P1;HPM_P2
2023/08/10 00:01:58;;;;;;;3.50;1.20;;;;;;;;;;5077615;28;20080;-75
2023/08/10 00:04:24;;;;;;;4.03;1.33;;;;;;;;;;5076859;28;20265;-75
2023/08/10 00:06:49;;;;;;;2.33;1.15;;;;;;;;;;5075589;28;20021;-75
2023/08/10 00:09:14;;;;;;;1.95;1.25;;;;;;;;;;5076675;28;20036;-75
2023/08/10 00:11:39;;;;;;;3.45;1.08;;;;;;;;;;5074995;28;20432;-75
2023/08/10 00:14:05;;;;;;;3.80;1.25;;;;;;;;;;5075952;28;20024;-73
2023/08/10 00:16:31;;;;;;;2.78;1.20;;;;;;;;;;5076270;28;20035;-75
2023/08/10 00:18:57;;;;;;;3.22;1.52;;;;;;;;;;5076566;28;20403;-75
2023/08/10 00:21:22;;;;;;;1.70;1.10;;;;;;;;;;5076304;28;20020;-74
2023/08/10 00:23:47;;;;;;;2.67;1.33;;;;;;;;;;5058157;28;20048;-73
2023/08/10 00:26:12;;;;;;;2.50;1.30;;;;;;;;;;5078324;28;20036;-77
2023/08/10 00:28:38;;;;;;;5.28;1.58;;;;;;;;;;5077024;28;20086;-76
2023/08/10 00:31:03;;;;;;;1.85;1.23;;;;;;;;;;5059657;28;20027;-77
2023/08/10 00:33:28;;;;;;;3.38;1.30;;;;;;;;;;5075907;28;20040;-75
2023/08/10 00:35:54;;;;;;;2.33;1.27;;;;;;;;;;5076066;28;20506;-76
2023/08/10 00:38:19;;;;;;;1.73;1.10;;;;;;;;;;5075882;28;20040;-77
2023/08/10 00:40:44;;;;;;;3.83;1.35;;;;;;;;;;5057756;28;20024;-77
2023/08/10 00:43:10;;;;;;;5.00;1.33;;;;;;;;;;5057868;28;20429;-77
2023/08/10 00:45:37;;;;;;;1.98;1.20;;;;;;;;;;5075705;28;20035;-76
2023/08/10 00:48:02;;;;;;;2.63;1.35;;;;;;;;;;5076306;28;20107;-77
2023/08/10 00:50:28;;;;;;;4.95;1.38;;;;;;;;;;5057396;28;20105;-77
2023/08/10 00:52:54;;;;;;;1.70;1.30;;;;;;;;;;5075698;28;20028;-77
2023/08/10 00:55:19;;;;;;;1.70;1.30;;;;;;;;;;5057565;28;20048;-77
2023/08/10 00:57:45;;;;;;;2.88;1.40;;;;;;;;;;5075916;28;20524;-77
2023/08/10 01:00:12;;;;;;;3.45;1.30;;;;;;;;;;5075384;28;20115;-76
2023/08/10 01:02:39;;;;;;;2.78;1.30;;;;;;;;;;5075691;28;20029;-77
2023/08/10 01:05:05;;;;;;;3.70;1.40;;;;;;;;;;5076210;28;20028;-77
2023/08/10 01:07:39;;;;;;;2.75;1.40;;;;;;;;;;5074575;28;20047;-77
2023/08/10 01:10:27;;;;;;;2.05;1.38;;;;;;;;;;5075309;28;20498;-76
2023/08/10 01:13:12;;;;;;;4.20;1.40;;;;;;;;;;5075074;28;20037;-77
2023/08/10 01:15:44;;;;;;;2.42;1.17;;;;;;;;;;5058128;28;20446;-76
2023/08/10 01:18:14;;;;;;;2.03;1.35;;;;;;;;;;5076027;28;20021;-77
2023/08/10 01:20:41;;;;;;;2.70;1.50;;;;;;;;;;5075447;28;20024;-76
2023/08/10 01:23:12;;;;;;;1.85;1.40;;;;;;;;;;5075437;28;20124;-76
2023/08/10 01:25:38;;;;;;;1.88;1.20;;;;;;;;;;5075765;28;20032;-76
2023/08/10 01:28:04;;;;;;;2.65;1.40;;;;;;;;;;5075330;28;20032;-76
2023/08/10 01:30:30;;;;;;;2.53;1.17;;;;;;;;;;5075475;28;20021;-76
2023/08/10 01:32:56;;;;;;;6.15;1.50;;;;;;;;;;5075147;28;20020;-76
2023/08/10 01:35:21;;;;;;;2.67;1.40;;;;;;;;;;5075291;28;20036;-75
2023/08/10 01:37:47;;;;;;;2.83;1.33;;;;;;;;;;5075289;28;20028;-76
2023/08/10 01:40:16;;;;;;;3.53;1.25;;;;;;;;;;5074788;28;20025;-77
2023/08/10 01:42:43;;;;;;;2.40;1.45;;;;;;;;;;5074776;28;20434;-77
2023/08/10 01:45:09;;;;;;;3.58;1.40;;;;;;;;;;5056514;28;20411;-77
2023/08/10 01:47:44;;;;;;;7.47;1.27;;;;;;;;;;5055728;28;20037;-77
2023/08/10 01:50:09;;;;;;;3.90;1.35;;;;;;;;;;5073901;28;20052;-77
2023/08/10 01:52:43;;;;;;;3.03;1.40;;;;;;;;;;5055642;28;20048;-77
2023/08/10 01:55:09;;;;;;;4.35;1.48;;;;;;;;;;5074469;28;20036;-77
2023/08/10 01:57:35;;;;;;;1.98;1.27;;;;;;;;;;5074235;28;20024;-77
2023/08/10 02:00:01;;;;;;;1.70;1.20;;;;;;;;;;5056830;28;20024;-76
2023/08/10 02:02:26;;;;;;;3.45;1.30;;;;;;;;;;5074746;28;20498;-77
2023/08/10 02:04:51;;;;;;;4.70;1.50;;;;;;;;;;5074880;28;20032;-77
2023/08/10 02:07:17;;;;;;;2.20;1.30;;;;;;;;;;5074512;28;20083;-77
2023/08/10 02:09:42;;;;;;;1.90;1.38;;;;;;;;;;5056781;28;20020;-77
2023/08/10 02:12:08;;;;;;;4.13;1.58;;;;;;;;;;5056286;28;20029;-77
2023/08/10 02:14:33;;;;;;;5.60;1.30;;;;;;;;;;5056477;28;20032;-76
2023/08/10 02:16:59;;;;;;;2.97;1.25;;;;;;;;;;5056505;28;20020;-77
2023/08/10 02:19:24;;;;;;;3.97;1.40;;;;;;;;;;5073420;28;20107;-76
2023/08/10 02:21:50;;;;;;;1.77;1.23;;;;;;;;;;5074325;28;20295;-76
2023/08/10 02:24:15;;;;;;;1.95;1.25;;;;;;;;;;5074336;28;20021;-77
2023/08/10 02:26:40;;;;;;;2.83;1.40;;;;;;;;;;5074217;28;20020;-76
2023/08/10 02:29:05;;;;;;;4.13;1.30;;;;;;;;;;5074368;28;20028;-76
2023/08/10 02:31:31;;;;;;;2.58;1.30;;;;;;;;;;5074144;28;20480;-77
2023/08/10 02:33:56;;;;;;;3.67;1.48;;;;;;;;;;5074330;28;20074;-76
2023/08/10 02:36:22;;;;;;;3.42;1.40;;;;;;;;;;5075002;28;20035;-76
2023/08/10 02:38:47;;;;;;;1.80;1.20;;;;;;;;;;5074661;28;20055;-76
2023/08/10 02:41:12;;;;;;;3.42;1.40;;;;;;;;;;5074885;28;20505;-76
2023/08/10 02:43:38;;;;;;;2.30;1.40;;;;;;;;;;5057071;28;20493;-77
2023/08/10 02:46:03;;;;;;;2.50;1.30;;;;;;;;;;5074010;28;20051;-78
2023/08/10 02:48:28;;;;;;;3.17;1.63;;;;;;;;;;5056566;28;20586;-76
2023/08/10 02:50:54;;;;;;;2.50;1.42;;;;;;;;;;5055995;28;20047;-77
2023/08/10 02:53:19;;;;;;;1.83;1.40;;;;;;;;;;5055517;28;20042;-77
2023/08/10 02:55:44;;;;;;;2.58;1.25;;;;;;;;;;5073951;28;20078;-77
2023/08/10 02:58:10;;;;;;;2.15;1.42;;;;;;;;;;5074329;28;20028;-77
2023/08/10 03:00:36;;;;;;;3.20;1.70;;;;;;;;;;5073911;28;20032;-76
2023/08/10 03:03:01;;;;;;;2.40;1.30;;;;;;;;;;5073635;28;20021;-77
2023/08/10 03:05:27;;;;;;;1.25;1.10;;;;;;;;;;5055866;28;20529;-77
2023/08/10 03:07:52;;;;;;;2.22;1.38;;;;;;;;;;5074275;28;20029;-75
2023/08/10 03:10:17;;;;;;;3.10;1.40;;;;;;;;;;5073978;28;20028;-75
2023/08/10 03:12:43;;;;;;;3.88;1.40;;;;;;;;;;5055366;28;20020;-75
2023/08/10 03:15:11;;;;;;;1.55;1.25;;;;;;;;;;5073371;28;20032;-74
2023/08/10 03:17:36;;;;;;;2.53;1.45;;;;;;;;;;5055585;28;20024;-75
2023/08/10 03:20:06;;;;;;;4.70;1.58;;;;;;;;;;5073745;28;20035;-74
2023/08/10 03:22:31;;;;;;;5.35;1.50;;;;;;;;;;5073061;28;20048;-75
2023/08/10 03:24:57;;;;;;;5.75;1.40;;;;;;;;;;5073472;28;20473;-75
2023/08/10 03:27:22;;;;;;;3.13;1.50;;;;;;;;;;5055586;28;20028;-75
2023/08/10 03:29:47;;;;;;;2.60;1.30;;;;;;;;;;5073824;28;20267;-75
2023/08/10 03:32:12;;;;;;;2.80;1.50;;;;;;;;;;5077377;28;20344;-75
2023/08/10 03:34:37;;;;;;;3.75;1.50;;;;;;;;;;5059334;28;20040;-75
2023/08/10 03:37:03;;;;;;;5.05;1.70;;;;;;;;;;5077383;28;20403;-74
2023/08/10 03:39:28;;;;;;;2.08;1.30;;;;;;;;;;5076793;28;20028;-72
2023/08/10 03:41:54;;;;;;;2.15;1.38;;;;;;;;;;5076588;28;20024;-74
2023/08/10 03:44:19;;;;;;;2.92;1.40;;;;;;;;;;5058196;28;20089;-74
2023/08/10 03:46:44;;;;;;;2.40;1.48;;;;;;;;;;5058721;28;20025;-74
2023/08/10 03:49:09;;;;;;;3.25;1.70;;;;;;;;;;5075805;28;20079;-75
2023/08/10 03:51:35;;;;;;;3.33;1.50;;;;;;;;;;5076997;28;20025;-71
2023/08/10 03:54:00;;;;;;;4.55;1.60;;;;;;;;;;5076615;28;20028;-74
2023/08/10 03:56:26;;;;;;;6.30;1.48;;;;;;;;;;5076636;28;20146;-73
2023/08/10 03:58:51;;;;;;;2.10;1.45;;;;;;;;;;5076395;28;20032;-71
2023/08/10 04:01:17;;;;;;;5.32;1.60;;;;;;;;;;5076946;28;20202;-75
2023/08/10 04:03:43;;;;;;;3.35;1.45;;;;;;;;;;5059301;28;20434;-76
2023/08/10 04:06:08;;;;;;;4.40;1.60;;;;;;;;;;5059460;28;20020;-73
2023/08/10 04:08:33;;;;;;;2.22;1.50;;;;;;;;;;5077143;28;20027;-75
2023/08/10 04:10:59;;;;;;;2.08;1.42;;;;;;;;;;5076884;28;20063;-73
2023/08/10 04:13:24;;;;;;;2.85;1.55;;;;;;;;;;5076193;28;20462;-76
2023/08/10 04:15:50;;;;;;;3.33;1.50;;;;;;;;;;5076441;28;20032;-72
2023/08/10 04:18:15;;;;;;;3.17;1.33;;;;;;;;;;5058509;28;20074;-72
2023/08/10 04:20:40;;;;;;;7.32;1.75;;;;;;;;;;5058519;28;20368;-75
2023/08/10 04:23:05;;;;;;;4.93;1.33;;;;;;;;;;5076323;28;20020;-73
2023/08/10 04:25:31;;;;;;;3.65;1.60;;;;;;;;;;5058639;28;20526;-75
2023/08/10 04:27:57;;;;;;;4.47;1.52;;;;;;;;;;5076043;28;20024;-75
2023/08/10 04:30:28;;;;;;;3.72;1.40;;;;;;;;;;5058380;28;20434;-74
2023/08/10 04:32:54;;;;;;;4.97;1.55;;;;;;;;;;5076178;28;20020;-75
2023/08/10 04:35:19;;;;;;;2.10;1.60;;;;;;;;;;5076656;28;20428;-74
2023/08/10 04:37:44;;;;;;;6.70;1.60;;;;;;;;;;5075788;28;20524;-74
2023/08/10 04:40:10;;;;;;;1.88;1.35;;;;;;;;;;5076351;28;20024;-74
2023/08/10 04:42:38;;;;;;;2.50;1.50;;;;;;;;;;5075703;28;20021;-74
2023/08/10 04:45:05;;;;;;;3.50;1.40;;;;;;;;;;5076875;28;20087;-75
2023/08/10 04:47:30;;;;;;;3.28;1.50;;;;;;;;;;5058044;28;20060;-75
2023/08/10 04:49:55;;;;;;;3.25;1.60;;;;;;;;;;5058654;28;20029;-75
2023/08/10 04:52:20;;;;;;;4.53;1.40;;;;;;;;;;5075821;28;20025;-75
2023/08/10 04:54:46;;;;;;;4.05;1.40;;;;;;;;;;5057831;28;20024;-75
2023/08/10 04:57:11;;;;;;;2.20;1.45;;;;;;;;;;5076001;28;20035;-75
2023/08/10 04:59:36;;;;;;;1.98;1.35;;;;;;;;;;5058284;28;20020;-75
2023/08/10 05:02:02;;;;;;;3.63;1.40;;;;;;;;;;5057676;28;20060;-74
2023/08/10 05:04:27;;;;;;;6.07;1.60;;;;;;;;;;5057950;28;20135;-75
2023/08/10 05:06:52;;;;;;;3.53;1.67;;;;;;;;;;5075518;28;20142;-74
2023/08/10 05:09:18;;;;;;;3.40;1.50;;;;;;;;;;5075475;28;20020;-74
2023/08/10 05:11:43;;;;;;;4.15;1.35;;;;;;;;;;5057649;28;20249;-74
2023/08/10 05:14:08;;;;;;;2.53;1.20;;;;;;;;;;5075222;28;20020;-74
2023/08/10 05:16:33;;;;;;;2.75;1.50;;;;;;;;;;5075739;28;20028;-75
2023/08/10 05:18:59;;;;;;;2.78;1.35;;;;;;;;;;5075802;28;20070;-79
2023/08/10 05:21:24;;;;;;;2.22;1.30;;;;;;;;;;5075206;28;20025;-74
2023/08/10 05:23:50;;;;;;;3.10;1.20;;;;;;;;;;5075589;28;20040;-75
2023/08/10 05:26:15;;;;;;;5.07;1.30;;;;;;;;;;5075040;28;20028;-75
2023/08/10 05:28:41;;;;;;;2.42;1.48;;;;;;;;;;5075420;28;20047;-76
2023/08/10 05:31:06;;;;;;;1.60;1.13;;;;;;;;;;5074849;28;20029;-76
2023/08/10 05:33:31;;;;;;;2.10;1.38;;;;;;;;;;5074456;28;20024;-76
2023/08/10 05:35:57;;;;;;;2.50;1.17;;;;;;;;;;5056511;28;20024;-75
2023/08/10 05:38:22;;;;;;;3.58;1.23;;;;;;;;;;5074446;28;20031;-75
2023/08/10 05:40:47;;;;;;;3.33;1.23;;;;;;;;;;5074154;28;20054;-75
2023/08/10 05:43:13;;;;;;;5.32;1.33;;;;;;;;;;5056529;28;20017;-75
2023/08/10 05:45:38;;;;;;;3.10;1.30;;;;;;;;;;5056430;28;20032;-75
2023/08/10 05:48:11;;;;;;;1.98;1.27;;;;;;;;;;5074457;28;20020;-75
2023/08/10 05:50:37;;;;;;;2.35;1.13;;;;;;;;;;5074276;28;20024;-75
2023/08/10 05:53:03;;;;;;;2.58;1.35;;;;;;;;;;5073832;28;20422;-75
2023/08/10 05:55:28;;;;;;;2.28;1.25;;;;;;;;;;5074433;28;20104;-75
2023/08/10 05:57:54;;;;;;;2.42;1.20;;;;;;;;;;5074218;28;20063;-75
2023/08/10 06:00:19;;;;;;;1.55;1.15;;;;;;;;;;5055961;28;20024;-75
2023/08/10 06:02:45;;;;;;;2.08;1.35;;;;;;;;;;5074242;28;20020;-75
2023/08/10 06:05:11;;;;;;;3.03;1.55;;;;;;;;;;5078014;28;20027;-82
2023/08/10 06:07:36;;;;;;;3.30;1.17;;;;;;;;;;5079964;28;20059;-83
2023/08/10 06:10:03;;;;;;;2.67;1.38;;;;;;;;;;5060679;28;20031;-82
2023/08/10 06:12:28;;;;;;;5.18;1.00;;;;;;;;;;5077634;28;20025;-78
2023/08/10 06:14:54;;;;;;;5.63;1.15;;;;;;;;;;5060278;28;20025;-80
2023/08/10 06:17:19;;;;;;;1.40;1.08;;;;;;;;;;5074604;28;20020;-77
2023/08/10 06:19:51;;;;;;;2.17;1.20;;;;;;;;;;5074172;28;20036;-78
2023/08/10 06:22:17;;;;;;;2.58;1.17;;;;;;;;;;5055719;28;20395;-77
2023/08/10 06:24:42;;;;;;;3.70;1.15;;;;;;;;;;5073952;28;20111;-77
2023/08/10 06:27:07;;;;;;;2.05;1.10;;;;;;;;;;5077177;28;20588;-77
2023/08/10 06:29:33;;;;;;;3.47;1.30;;;;;;;;;;5077119;28;20472;-78
2023/08/10 06:31:58;;;;;;;1.85;1.20;;;;;;;;;;5056994;28;20103;-79
2023/08/10 06:34:23;;;;;;;2.00;1.20;;;;;;;;;;5073340;28;20021;-77
2023/08/10 06:36:49;;;;;;;2.42;1.20;;;;;;;;;;5055329;28;20249;-77
2023/08/10 06:39:14;;;;;;;3.67;1.40;;;;;;;;;;5072530;28;20032;-77
2023/08/10 06:41:40;;;;;;;2.25;1.35;;;;;;;;;;5073471;28;20028;-77
2023/08/10 06:44:05;;;;;;;1.27;1.10;;;;;;;;;;5073540;28;20020;-77
2023/08/10 06:46:31;;;;;;;1.50;1.10;;;;;;;;;;5073610;28;20502;-77
2023/08/10 06:48:57;;;;;;;2.33;1.10;;;;;;;;;;5073498;28;20056;-76
2023/08/10 06:51:22;;;;;;;2.40;1.23;;;;;;;;;;5072707;28;20028;-77
2023/08/10 06:53:47;;;;;;;2.78;1.00;;;;;;;;;;5055293;28;20445;-78
2023/08/10 06:56:12;;;;;;;1.80;1.13;;;;;;;;;;5076137;28;20017;-78
2023/08/10 06:58:38;;;;;;;1.35;0.93;;;;;;;;;;5076554;28;20032;-78
2023/08/10 07:01:03;;;;;;;3.55;1.20;;;;;;;;;;5073837;28;20032;-78
2023/08/10 07:03:28;;;;;;;3.95;1.05;;;;;;;;;;5073173;28;20023;-78
2023/08/10 07:05:55;;;;;;;2.83;1.15;;;;;;;;;;5057424;28;20016;-77
2023/08/10 07:08:21;;;;;;;3.75;1.20;;;;;;;;;;5077543;28;20029;-78
2023/08/10 07:10:46;;;;;;;4.93;1.13;;;;;;;;;;5077845;28;20027;-78
2023/08/10 07:13:11;;;;;;;3.03;1.20;;;;;;;;;;5077895;28;20071;-78
2023/08/10 07:15:37;;;;;;;2.65;1.10;;;;;;;;;;5060089;28;20116;-78
2023/08/10 07:18:02;;;;;;;2.28;1.10;;;;;;;;;;5079854;28;20360;-78
2023/08/10 07:20:28;;;;;;;3.35;1.10;;;;;;;;;;5059409;28;20032;-77
2023/08/10 07:22:53;;;;;;;2.97;1.10;;;;;;;;;;5076595;28;20024;-77
2023/08/10 07:25:19;;;;;;;2.55;0.80;;;;;;;;;;5060049;28;20031;-78
2023/08/10 07:27:45;;;;;;;4.82;1.23;;;;;;;;;;5077959;28;20361;-78
2023/08/10 07:30:13;;;;;;;1.70;1.10;;;;;;;;;;5077821;28;20426;-78
2023/08/10 07:32:38;;;;;;;3.88;1.00;;;;;;;;;;5060641;28;20115;-78
2023/08/10 07:35:05;;;;;;;1.83;0.93;;;;;;;;;;5077045;28;20056;-78
2023/08/10 07:37:31;;;;;;;4.30;1.30;;;;;;;;;;5076563;28;20510;-77
2023/08/10 07:39:56;;;;;;;2.17;1.10;;;;;;;;;;5076292;28;20024;-77
2023/08/10 07:42:22;;;;;;;6.05;1.48;;;;;;;;;;5076411;28;20460;-77
2023/08/10 07:44:47;;;;;;;2.90;0.98;;;;;;;;;;5076440;28;20081;-77
2023/08/10 07:47:12;;;;;;;7.03;1.02;;;;;;;;;;5076159;28;20027;-77
2023/08/10 07:49:42;;;;;;;2.60;1.13;;;;;;;;;;5076043;28;20047;-77
2023/08/10 07:52:07;;;;;;;3.40;1.30;;;;;;;;;;5075937;28;20028;-77
2023/08/10 07:54:32;;;;;;;0.82;0.80;;;;;;;;;;5076365;28;20025;-78
2023/08/10 07:56:58;;;;;;;2.38;1.00;;;;;;;;;;5076867;28;20341;-77
2023/08/10 07:59:23;;;;;;;1.40;1.00;;;;;;;;;;5058091;28;20016;-77
2023/08/10 08:01:48;;;;;;;1.58;1.00;;;;;;;;;;5075964;28;20120;-77
2023/08/10 08:04:14;;;;;;;3.83;1.17;;;;;;;;;;5075708;28;20027;-77
2023/08/10 08:06:39;;;;;;;2.33;0.95;;;;;;;;;;5075936;28;20021;-77
2023/08/10 08:09:06;;;;;;;1.17;0.98;;;;;;;;;;5075650;28;20036;-77
2023/08/10 08:11:32;;;;;;;1.85;0.90;;;;;;;;;;5057824;28;20029;-77
2023/08/10 08:13:57;;;;;;;3.95;1.20;;;;;;;;;;5075431;28;20434;-77
2023/08/10 08:16:23;;;;;;;2.72;1.00;;;;;;;;;;5075352;28;20025;-77
2023/08/10 08:18:52;;;;;;;2.78;1.00;;;;;;;;;;5075874;28;20086;-77
2023/08/10 08:21:20;;;;;;;2.40;1.10;;;;;;;;;;5078449;28;20552;-78
2023/08/10 08:23:46;;;;;;;2.25;1.15;;;;;;;;;;5075601;28;20036;-78
2023/08/10 08:26:14;;;;;;;4.88;1.30;;;;;;;;;;5076614;28;20025;-78
2023/08/10 08:28:39;;;;;;;1.40;1.00;;;;;;;;;;5076134;28;20471;-78
2023/08/10 08:31:05;;;;;;;1.60;1.10;;;;;;;;;;5075849;28;20027;-78
2023/08/10 08:33:30;;;;;;;3.00;0.82;;;;;;;;;;5057554;28;20112;-78
2023/08/10 08:35:55;;;;;;;1.60;1.00;;;;;;;;;;5075382;28;20028;-78
2023/08/10 08:38:21;;;;;;;2.80;1.20;;;;;;;;;;5075164;28;20035;-78
2023/08/10 08:40:50;;;;;;;2.92;0.93;;;;;;;;;;5059188;28;20035;-78
2023/08/10 08:43:16;;;;;;;1.23;0.95;;;;;;;;;;5075815;28;20475;-77
2023/08/10 08:45:42;;;;;;;2.08;1.08;;;;;;;;;;5075828;28;20032;-78
2023/08/10 08:48:09;;;;;;;5.20;1.17;;;;;;;;;;5075192;28;20197;-78
2023/08/10 08:50:36;;;;;;;3.50;1.10;;;;;;;;;;5057907;28;20502;-78
2023/08/10 08:53:05;;;;;;;1.73;1.10;;;;;;;;;;5057419;28;20031;-77
2023/08/10 08:55:31;;;;;;;2.22;1.40;;;;;;;;;;5075178;28;20071;-77
2023/08/10 08:57:56;;;;;;;3.15;1.30;;;;;;;;;;5056910;28;20021;-78
2023/08/10 09:00:22;;;;;;;3.42;1.27;;;;;;;;;;5074891;28;20028;-77
2023/08/10 09:02:49;;;;;;;2.10;1.10;;;;;;;;;;5076230;28;20142;-76
2023/08/10 09:05:15;;;;;;;4.30;1.20;;;;;;;;;;5076661;28;20076;-78
2023/08/10 09:07:40;;;;;;;1.60;1.02;;;;;;;;;;5057212;28;20418;-78
2023/08/10 09:10:05;;;;;;;1.77;0.93;;;;;;;;;;5076365;28;20020;-78
2023/08/10 09:12:35;;;;;;;1.70;1.10;;;;;;;;;;5076437;28;20060;-78
2023/08/10 09:15:03;;;;;;;3.42;1.05;;;;;;;;;;5056921;28;20024;-77
2023/08/10 09:17:28;;;;;;;1.10;1.00;;;;;;;;;;5075077;28;20024;-77
2023/08/10 09:19:54;;;;;;;2.40;1.23;;;;;;;;;;5075275;28;20031;-78
2023/08/10 09:22:36;;;;;;;2.72;1.10;;;;;;;;;;5074331;28;20492;-76
2023/08/10 09:25:04;;;;;;;3.40;0.95;;;;;;;;;;5074263;28;20369;-77
2023/08/10 09:27:30;;;;;;;1.38;0.98;;;;;;;;;;5073869;28;20483;-77
2023/08/10 09:30:00;;;;;;;2.35;0.80;;;;;;;;;;5056259;28;20415;-77
2023/08/10 09:32:26;;;;;;;1.30;0.90;;;;;;;;;;5074726;28;20024;-78
2023/08/10 09:34:52;;;;;;;2.20;1.00;;;;;;;;;;5071478;28;20070;-78
2023/08/10 09:37:18;;;;;;;6.53;1.40;;;;;;;;;;5072593;28;20028;-77
2023/08/10 09:39:44;;;;;;;1.63;1.02;;;;;;;;;;5073871;28;20030;-77
2023/08/10 09:42:09;;;;;;;1.67;0.90;;;;;;;;;;5055159;28;20020;-77
2023/08/10 09:44:49;;;;;;;1.60;0.93;;;;;;;;;;5073868;28;20024;-77
2023/08/10 09:47:15;;;;;;;0.90;0.65;;;;;;;;;;5073920;28;20025;-77
2023/08/10 09:49:57;;;;;;;2.38;0.90;;;;;;;;;;5074708;28;20099;-76
2023/08/10 09:52:24;;;;;;;1.13;0.90;;;;;;;;;;5055745;28;20024;-77
2023/08/10 09:54:50;;;;;;;1.58;1.10;;;;;;;;;;5073646;28;20477;-77
2023/08/10 09:57:18;;;;;;;0.85;0.80;;;;;;;;;;5055042;28;20509;-77
2023/08/10 09:59:43;;;;;;;1.55;1.08;;;;;;;;;;5073580;28;20498;-77
2023/08/10 10:02:10;;;;;;;2.35;0.93;;;;;;;;;;5055449;28;20119;-77
2023/08/10 10:04:36;;;;;;;1.70;0.93;;;;;;;;;;5073506;28;20085;-77
2023/08/10 10:07:03;;;;;;;1.55;1.00;;;;;;;;;;5072021;28;20476;-77
2023/08/10 10:09:29;;;;;;;1.85;0.85;;;;;;;;;;5073871;28;20139;-77
2023/08/10 10:11:58;;;;;;;4.55;0.82;;;;;;;;;;5072104;28;20020;-77
2023/08/10 10:14:24;;;;;;;2.97;1.02;;;;;;;;;;5054264;28;20031;-77
2023/08/10 10:16:51;;;;;;;1.00;0.90;;;;;;;;;;5054351;28;20017;-77
2023/08/10 10:19:17;;;;;;;1.10;0.88;;;;;;;;;;5072555;28;20506;-77
2023/08/10 10:21:42;;;;;;;1.00;0.90;;;;;;;;;;5073169;28;20036;-77
2023/08/10 10:24:10;;;;;;;1.27;0.95;;;;;;;;;;5055104;28;20522;-77
2023/08/10 10:26:37;;;;;;;2.67;1.00;;;;;;;;;;5073350;28;20028;-77
2023/08/10 10:29:15;;;;;;;2.63;1.10;;;;;;;;;;5073195;28;20047;-77
2023/08/10 10:31:40;;;;;;;2.53;0.93;;;;;;;;;;5072988;28;20030;-77
2023/08/10 10:34:10;;;;;;;12.77;1.02;;;;;;;;;;5055152;28;20115;-77
2023/08/10 10:36:38;;;;;;;2.15;1.00;;;;;;;;;;5057089;28;20028;-77
2023/08/10 10:39:07;;;;;;;1.90;0.90;;;;;;;;;;5073330;28;20081;-76
2023/08/10 10:41:37;;;;;;;1.42;1.00;;;;;;;;;;5072734;28;20081;-76
2023/08/10 10:44:04;;;;;;;1.40;1.00;;;;;;;;;;5056364;28;20383;-76
2023/08/10 10:46:33;;;;;;;2.08;1.10;;;;;;;;;;5076387;28;20020;-80
2023/08/10 10:49:12;;;;;;;3.20;0.90;;;;;;;;;;5076857;28;20038;-78
2023/08/10 10:51:53;;;;;;;3.60;1.10;;;;;;;;;;5074661;28;20087;-77
2023/08/10 10:54:18;;;;;;;1.00;0.90;;;;;;;;;;5074586;28;20024;-78
2023/08/10 10:56:44;;;;;;;3.47;1.20;;;;;;;;;;5075703;28;20056;-77
2023/08/10 10:59:09;;;;;;;1.75;1.15;;;;;;;;;;5057310;28;20115;-77
2023/08/10 11:01:35;;;;;;;2.28;1.08;;;;;;;;;;5074907;28;20021;-78
2023/08/10 11:04:00;;;;;;;2.85;1.00;;;;;;;;;;5058178;28;20028;-78
2023/08/10 11:06:53;;;;;;;3.65;1.30;;;;;;;;;;5075579;28;20036;-77
2023/08/10 11:09:20;;;;;;;3.20;1.50;;;;;;;;;;5058466;28;20134;-78
2023/08/10 11:11:49;;;;;;;2.58;1.27;;;;;;;;;;5075415;28;20032;-79
2023/08/10 11:14:15;;;;;;;3.65;1.33;;;;;;;;;;5075073;28;20024;-78
2023/08/10 11:16:42;;;;;;;1.55;1.05;;;;;;;;;;5057094;28;20021;-78
2023/08/10 11:19:09;;;;;;;1.95;1.20;;;;;;;;;;5076084;28;20031;-77
2023/08/10 11:21:37;;;;;;;2.38;1.20;;;;;;;;;;5058589;28;20480;-78
2023/08/10 11:24:06;;;;;;;1.45;1.00;;;;;;;;;;5076325;28;20048;-78
2023/08/10 11:26:33;;;;;;;2.00;1.08;;;;;;;;;;5058946;28;20477;-78
2023/08/10 11:28:58;;;;;;;0.88;0.82;;;;;;;;;;5075773;28;20032;-77
2023/08/10 11:31:23;;;;;;;4.13;1.30;;;;;;;;;;5074906;28;20353;-79
2023/08/10 11:33:50;;;;;;;2.92;1.23;;;;;;;;;;5056437;28;20031;-78
2023/08/10 11:36:15;;;;;;;2.47;1.20;;;;;;;;;;5056867;28;20392;-78
2023/08/10 11:38:42;;;;;;;1.47;1.20;;;;;;;;;;5057053;28;20042;-78
2023/08/10 11:41:08;;;;;;;2.55;1.30;;;;;;;;;;5075643;28;20691;-78
2023/08/10 11:43:33;;;;;;;2.67;1.20;;;;;;;;;;5058027;28;20064;-78
2023/08/10 11:45:58;;;;;;;3.08;1.33;;;;;;;;;;5075790;28;20059;-78
2023/08/10 11:48:26;;;;;;;2.42;1.42;;;;;;;;;;5076822;28;20035;-78
2023/08/10 11:50:59;;;;;;;2.00;1.13;;;;;;;;;;5057307;28;20046;-78
2023/08/10 11:53:36;;;;;;;1.97;1.23;;;;;;;;;;5060656;28;20028;-79
2023/08/10 11:56:01;;;;;;;2.08;1.25;;;;;;;;;;5079735;28;20146;-78
2023/08/10 11:58:32;;;;;;;1.38;1.17;;;;;;;;;;5078851;28;20518;-78
2023/08/10 12:01:02;;;;;;;3.50;1.20;;;;;;;;;;5061236;28;20115;-78
2023/08/10 12:03:29;;;;;;;1.10;1.00;;;;;;;;;;5061036;28;20032;-78
2023/08/10 12:05:56;;;;;;;2.38;1.42;;;;;;;;;;5078405;28;20030;-78
2023/08/10 12:08:29;;;;;;;3.28;1.40;;;;;;;;;;5079134;28;20080;-77
2023/08/10 12:11:03;;;;;;;3.13;1.55;;;;;;;;;;5078562;28;20108;-79
2023/08/10 12:13:29;;;;;;;1.95;1.27;;;;;;;;;;5080916;28;20044;-80
2023/08/10 12:15:56;;;;;;;2.08;1.40;;;;;;;;;;5080140;28;20028;-78
2023/08/10 12:18:23;;;;;;;2.92;1.50;;;;;;;;;;5078738;28;20020;-84
2023/08/10 12:20:54;;;;;;;3.30;1.70;;;;;;;;;;5079006;28;20085;-76
2023/08/10 12:23:20;;;;;;;8.10;1.60;;;;;;;;;;5075714;28;20033;-76
2023/08/10 12:25:48;;;;;;;2.45;1.20;;;;;;;;;;5058146;28;20513;-82
2023/08/10 12:28:15;;;;;;;2.72;1.02;;;;;;;;;;5058656;28;20021;-77
2023/08/10 12:30:41;;;;;;;4.75;1.30;;;;;;;;;;5079499;28;20445;-78
2023/08/10 12:33:08;;;;;;;3.33;1.30;;;;;;;;;;5077513;28;20035;-78
2023/08/10 12:35:34;;;;;;;3.25;1.45;;;;;;;;;;5077759;28;20029;-77
2023/08/10 12:37:59;;;;;;;3.92;1.65;;;;;;;;;;5059638;28;20039;-78
2023/08/10 12:40:25;;;;;;;5.65;1.38;;;;;;;;;;5058516;28;20024;-76
2023/08/10 12:42:50;;;;;;;2.17;1.40;;;;;;;;;;5057430;28;20036;-77
2023/08/10 12:45:17;;;;;;;1.42;1.33;;;;;;;;;;5076275;28;20028;-77
2023/08/10 12:47:43;;;;;;;3.15;1.50;;;;;;;;;;5078351;28;20022;-77
2023/08/10 12:50:10;;;;;;;2.47;1.60;;;;;;;;;;5078158;28;20043;-78
2023/08/10 12:52:36;;;;;;;5.32;1.40;;;;;;;;;;5058809;28;20024;-77
2023/08/10 12:55:01;;;;;;;1.88;1.40;;;;;;;;;;5076768;28;20028;-78
2023/08/10 12:57:27;;;;;;;4.80;1.65;;;;;;;;;;5076588;28;20035;-77
2023/08/10 12:59:52;;;;;;;2.38;1.48;;;;;;;;;;5078721;28;20052;-78
2023/08/10 13:02:18;;;;;;;4.05;1.33;;;;;;;;;;5058999;28;20028;-78
2023/08/10 13:04:46;;;;;;;2.63;1.53;;;;;;;;;;5058107;28;20039;-77
2023/08/10 13:07:11;;;;;;;1.60;1.30;;;;;;;;;;5076638;28;20256;-78
2023/08/10 13:09:36;;;;;;;2.83;1.73;;;;;;;;;;5077296;28;20078;-78
2023/08/10 13:12:01;;;;;;;2.20;1.42;;;;;;;;;;5077466;28;20048;-77
2023/08/10 13:14:27;;;;;;;4.03;1.52;;;;;;;;;;5057145;28;20112;-78
2023/08/10 13:16:52;;;;;;;2.25;1.40;;;;;;;;;;5075720;28;20078;-78
2023/08/10 13:19:20;;;;;;;2.95;1.40;;;;;;;;;;5057103;28;20020;-78
2023/08/10 13:21:46;;;;;;;1.65;1.20;;;;;;;;;;5077278;28;20028;-77
2023/08/10 13:24:11;;;;;;;5.35;1.50;;;;;;;;;;5075584;28;20120;-78
2023/08/10 13:26:37;;;;;;;2.70;1.45;;;;;;;;;;5057128;28;20200;-78
2023/08/10 13:29:02;;;;;;;2.28;1.48;;;;;;;;;;5060330;28;20016;-77
2023/08/10 13:31:27;;;;;;;5.93;1.55;;;;;;;;;;5080567;28;20052;-77
2023/08/10 13:33:52;;;;;;;2.67;1.40;;;;;;;;;;5076115;28;20056;-77
2023/08/10 13:36:18;;;;;;;4.15;1.38;;;;;;;;;;5078855;28;20261;-77
2023/08/10 13:38:43;;;;;;;3.33;1.48;;;;;;;;;;5079721;28;20155;-82
2023/08/10 13:41:08;;;;;;;4.68;1.60;;;;;;;;;;5074716;28;20582;-77
2023/08/10 13:43:34;;;;;;;2.40;1.55;;;;;;;;;;5071947;28;20043;-77
2023/08/10 13:45:59;;;;;;;3.00;1.43;;;;;;;;;;5054121;28;20074;-77
2023/08/10 13:48:25;;;;;;;1.77;1.40;;;;;;;;;;5071195;28;20342;-77
2023/08/10 13:50:51;;;;;;;2.20;1.48;;;;;;;;;;5072575;28;20024;-77
2023/08/10 13:53:17;;;;;;;3.22;1.77;;;;;;;;;;5073807;28;20032;-77
2023/08/10 13:55:43;;;;;;;3.53;1.48;;;;;;;;;;5073729;28;20021;-77
2023/08/10 13:58:08;;;;;;;3.22;1.67;;;;;;;;;;5073733;28;20027;-77
2023/08/10 14:00:33;;;;;;;6.33;1.60;;;;;;;;;;5073590;28;20052;-77
2023/08/10 14:02:59;;;;;;;2.20;1.50;;;;;;;;;;5073323;28;20253;-77
2023/08/10 14:05:25;;;;;;;2.45;1.70;;;;;;;;;;5073840;28;20036;-77
2023/08/10 14:07:51;;;;;;;2.05;1.42;;;;;;;;;;5056539;28;20447;-77
2023/08/10 14:10:16;;;;;;;2.05;1.42;;;;;;;;;;5074140;28;20099;-78
2023/08/10 14:12:41;;;;;;;2.28;1.83;;;;;;;;;;5073395;28;20064;-77
2023/08/10 14:15:07;;;;;;;3.15;1.52;;;;;;;;;;5073342;28;20039;-77
2023/08/10 14:17:32;;;;;;;2.20;1.73;;;;;;;;;;5073780;28;20025;-77
2023/08/10 14:19:58;;;;;;;1.80;1.50;;;;;;;;;;5073610;28;20494;-77
2023/08/10 14:22:23;;;;;;;1.73;1.40;;;;;;;;;;5073685;28;20324;-77
2023/08/10 14:24:48;;;;;;;4.43;1.45;;;;;;;;;;5073469;28;20036;-77
2023/08/10 14:27:14;;;;;;;1.93;1.43;;;;;;;;;;5073437;28;20556;-76
2023/08/10 14:29:39;;;;;;;6.90;1.70;;;;;;;;;;5073425;28;20261;-75
2023/08/10 14:32:04;;;;;;;3.97;1.70;;;;;;;;;;5055441;28;20020;-78
2023/08/10 14:34:30;;;;;;;2.22;1.75;;;;;;;;;;5055379;28;20017;-78
2023/08/10 14:36:55;;;;;;;2.30;1.60;;;;;;;;;;5073305;28;20025;-78
2023/08/10 14:39:20;;;;;;;3.20;1.40;;;;;;;;;;5055200;28;20035;-78